createdAt,value
2023-05-19T00:00:35.000Z,518.0274658203125
2023-05-19T00:01:38.000Z,517.9313354492188
2023-05-19T00:02:40.000Z,519.9960327148438
2023-05-19T00:03:42.000Z,518.5794067382812
2023-05-19T00:04:44.000Z,517.1058349609375
2023-05-19T00:05:46.000Z,515.8899536132812
2023-05-19T00:06:48.000Z,512.6575317382812
2023-05-19T00:07:51.000Z,511.2243347167969
2023-05-19T00:08:53.000Z,511.5778503417969
2023-05-19T00:09:55.000Z,509.8758544921875
2023-05-19T00:10:57.000Z,509.85107421875
2023-05-19T00:11:59.000Z,509.5331726074219
2023-05-19T00:13:01.000Z,509.40924072265625
2023-05-19T00:14:04.000Z,509.5684509277344
2023-05-19T00:15:06.000Z,510.3782958984375
2023-05-19T00:16:08.000Z,507.7420959472656
2023-05-19T00:17:10.000Z,503.0701904296875
2023-05-19T00:18:12.000Z,505.22021484375
2023-05-19T00:19:14.000Z,508.5531921386719
2023-05-19T00:20:16.000Z,506.9985046386719
2023-05-19T00:21:19.000Z,505.9053039550781
2023-05-19T00:22:21.000Z,508.8608703613281
2023-05-19T00:23:23.000Z,510.07073974609375
2023-05-19T00:24:25.000Z,507.8144836425781
2023-05-19T00:25:27.000Z,507.3638000488281
2023-05-19T00:26:30.000Z,507.8703918457031
2023-05-19T00:27:32.000Z,507.1402893066406
2023-05-19T00:28:34.000Z,506.8005676269531
2023-05-19T00:29:41.000Z,505.6490478515625
2023-05-19T00:30:43.000Z,505.3450622558594
2023-05-19T00:31:45.000Z,504.0543518066406
2023-05-19T00:32:48.000Z,506.6808776855469
2023-05-19T00:33:50.000Z,508.1549072265625
2023-05-19T00:34:52.000Z,509.9012756347656
2023-05-19T00:35:54.000Z,510.7239990234375
2023-05-19T00:36:56.000Z,511.7904968261719
2023-05-19T00:37:58.000Z,512.2538452148438
2023-05-19T00:39:01.000Z,509.5083923339844
2023-05-19T00:40:03.000Z,507.66876220703125
2023-05-19T00:41:05.000Z,504.4286193847656
2023-05-19T00:42:07.000Z,501.1416015625
2023-05-19T00:43:09.000Z,501.0870056152344
2023-05-19T00:44:11.000Z,498.82843017578125
2023-05-19T00:45:14.000Z,497.67803955078125
2023-05-19T00:46:16.000Z,500.0188903808594
2023-05-19T00:47:23.000Z,499.5268859863281
2023-05-19T00:48:25.000Z,497.1661682128906
2023-05-19T00:49:27.000Z,495.73516845703125
2023-05-19T00:50:29.000Z,493.96795654296875
2023-05-19T00:51:32.000Z,491.45166015625
2023-05-19T00:52:34.000Z,491.5583801269531
2023-05-19T00:53:36.000Z,486.88592529296875
2023-05-19T00:54:38.000Z,482.7474060058594
2023-05-19T00:55:40.000Z,482.730224609375
2023-05-19T00:56:42.000Z,484.0599670410156
2023-05-19T00:57:44.000Z,486.266845703125
2023-05-19T00:58:47.000Z,485.49176025390625
2023-05-19T00:59:49.000Z,485.68341064453125
2023-05-19T01:00:51.000Z,481.60528564453125
2023-05-19T01:01:53.000Z,477.7515563964844
2023-05-19T01:02:55.000Z,478.0264892578125
2023-05-19T01:03:57.000Z,476.603515625
2023-05-19T01:05:00.000Z,480.9103698730469
2023-05-19T01:06:02.000Z,481.7475280761719
2023-05-19T01:07:04.000Z,481.3887023925781
2023-05-19T01:08:06.000Z,480.7572326660156
2023-05-19T01:09:08.000Z,480.6366882324219
2023-05-19T01:10:10.000Z,480.1299133300781
2023-05-19T01:11:13.000Z,478.1723937988281
2023-05-19T01:12:15.000Z,474.9595947265625
2023-05-19T01:13:17.000Z,474.4054870605469
2023-05-19T01:14:19.000Z,473.8071594238281
2023-05-19T01:15:21.000Z,473.74810791015625
2023-05-19T01:16:23.000Z,471.40631103515625
2023-05-19T01:17:26.000Z,469.88250732421875
2023-05-19T01:18:28.000Z,470.1640319824219
2023-05-19T01:19:30.000Z,471.0725402832031
2023-05-19T01:20:32.000Z,472.2671813964844
2023-05-19T01:21:34.000Z,472.984130859375
2023-05-19T01:22:36.000Z,473.2398986816406
2023-05-19T01:23:39.000Z,473.64495849609375
2023-05-19T01:24:41.000Z,472.0195617675781
2023-05-19T01:25:43.000Z,468.585693359375
2023-05-19T01:26:45.000Z,470.0460510253906
2023-05-19T01:27:47.000Z,469.90118408203125
2023-05-19T01:28:49.000Z,468.4878845214844
2023-05-19T01:29:52.000Z,469.3160095214844
2023-05-19T01:30:54.000Z,471.4011535644531
2023-05-19T01:31:56.000Z,470.2322692871094
2023-05-19T01:32:58.000Z,470.7686767578125
2023-05-19T01:34:00.000Z,471.3639831542969
2023-05-19T01:35:02.000Z,471.0152587890625
2023-05-19T01:36:05.000Z,468.75244140625
2023-05-19T01:37:07.000Z,468.3125915527344
2023-05-19T01:38:09.000Z,467.7093200683594
2023-05-19T01:39:11.000Z,464.8124694824219
2023-05-19T01:40:13.000Z,464.4643859863281
2023-05-19T01:41:15.000Z,466.7917785644531
2023-05-19T01:42:18.000Z,465.41229248046875
2023-05-19T01:43:20.000Z,465.4269714355469
2023-05-19T01:44:22.000Z,466.0985412597656
2023-05-19T01:45:24.000Z,466.78375244140625
2023-05-19T01:46:26.000Z,468.34429931640625
2023-05-19T01:47:28.000Z,468.4223327636719
2023-05-19T01:48:30.000Z,468.7218017578125
2023-05-19T01:49:33.000Z,470.7948303222656
2023-05-19T01:50:35.000Z,472.9664611816406
2023-05-19T01:51:37.000Z,475.28271484375
2023-05-19T01:52:39.000Z,475.83917236328125
2023-05-19T01:53:41.000Z,476.0438232421875
2023-05-19T01:54:43.000Z,476.59942626953125
2023-05-19T01:55:46.000Z,478.0870056152344
2023-05-19T01:56:48.000Z,478.1751708984375
2023-05-19T01:57:50.000Z,479.1567077636719
2023-05-19T01:58:52.000Z,480.05255126953125
2023-05-19T01:59:54.000Z,481.8789367675781
2023-05-19T02:00:56.000Z,482.5020751953125
2023-05-19T02:01:58.000Z,481.125732421875
2023-05-19T02:03:01.000Z,478.7973327636719
2023-05-19T02:04:03.000Z,478.9828796386719
2023-05-19T02:05:05.000Z,477.906982421875
2023-05-19T02:06:07.000Z,482.2670593261719
2023-05-19T02:07:09.000Z,480.1151123046875
2023-05-19T02:08:11.000Z,480.7213134765625
2023-05-19T02:09:14.000Z,479.95416259765625
2023-05-19T02:10:16.000Z,479.9490051269531
2023-05-19T02:11:18.000Z,480.16339111328125
2023-05-19T02:12:20.000Z,481.4212646484375
2023-05-19T02:13:22.000Z,480.6490173339844
2023-05-19T02:14:24.000Z,480.2336730957031
2023-05-19T02:15:26.000Z,480.96197509765625
2023-05-19T02:16:29.000Z,481.847412109375
2023-05-19T02:17:31.000Z,479.9898376464844
2023-05-19T02:18:33.000Z,482.0345153808594
2023-05-19T02:19:35.000Z,482.2249450683594
2023-05-19T02:20:37.000Z,482.7893981933594
2023-05-19T02:21:39.000Z,481.3116760253906
2023-05-19T02:22:42.000Z,480.98980712890625
2023-05-19T02:23:44.000Z,480.36248779296875
2023-05-19T02:24:46.000Z,483.4418640136719
2023-05-19T02:25:48.000Z,482.6650390625
2023-05-19T02:26:50.000Z,481.201904296875
2023-05-19T02:27:52.000Z,479.47711181640625
2023-05-19T02:28:55.000Z,479.0400390625
2023-05-19T02:29:57.000Z,476.49853515625
2023-05-19T02:30:59.000Z,477.4222717285156
2023-05-19T02:32:01.000Z,477.14007568359375
2023-05-19T02:33:03.000Z,477.9818420410156
2023-05-19T02:34:05.000Z,477.6006164550781
2023-05-19T02:35:07.000Z,476.0325012207031
2023-05-19T02:36:10.000Z,475.367431640625
2023-05-19T02:37:12.000Z,474.7167663574219
2023-05-19T02:38:14.000Z,477.83160400390625
2023-05-19T02:39:16.000Z,478.45904541015625
2023-05-19T02:40:18.000Z,478.4709167480469
2023-05-19T02:41:21.000Z,476.2547912597656
2023-05-19T02:42:23.000Z,473.65570068359375
2023-05-19T02:43:25.000Z,474.29144287109375
2023-05-19T02:44:27.000Z,473.7295837402344
2023-05-19T02:45:29.000Z,472.86981201171875
2023-05-19T02:46:31.000Z,472.2155456542969
2023-05-19T02:47:34.000Z,474.9161376953125
2023-05-19T02:48:36.000Z,475.6595764160156
2023-05-19T02:49:38.000Z,472.5654296875
2023-05-19T02:50:40.000Z,470.85955810546875
2023-05-19T02:51:42.000Z,471.44757080078125
2023-05-19T02:52:45.000Z,471.2389831542969
2023-05-19T02:53:47.000Z,468.5924987792969
2023-05-19T02:54:49.000Z,467.0961608886719
2023-05-19T02:55:51.000Z,467.7694396972656
2023-05-19T02:56:53.000Z,467.68267822265625
2023-05-19T02:57:55.000Z,467.94744873046875
2023-05-19T02:58:58.000Z,468.88665771484375
2023-05-19T03:00:00.000Z,469.9130859375
2023-05-19T03:01:02.000Z,470.98065185546875
2023-05-19T03:02:04.000Z,473.6496276855469
2023-05-19T03:03:06.000Z,474.442138671875
2023-05-19T03:04:08.000Z,473.09765625
2023-05-19T03:05:10.000Z,471.0563659667969
2023-05-19T03:06:13.000Z,471.5167236328125
2023-05-19T03:07:15.000Z,470.2268981933594
2023-05-19T03:08:17.000Z,469.1336364746094
2023-05-19T03:09:19.000Z,467.9685363769531
2023-05-19T03:10:21.000Z,465.1488037109375
2023-05-19T03:11:23.000Z,465.5880432128906
2023-05-19T03:12:26.000Z,465.4457702636719
2023-05-19T03:13:28.000Z,464.43865966796875
2023-05-19T03:14:30.000Z,462.1536865234375
2023-05-19T03:15:32.000Z,461.931640625
2023-05-19T03:16:34.000Z,462.1763610839844
2023-05-19T03:17:36.000Z,462.8513488769531
2023-05-19T03:18:39.000Z,464.79241943359375
2023-05-19T03:19:41.000Z,467.738525390625
2023-05-19T03:20:43.000Z,468.4849853515625
2023-05-19T03:21:45.000Z,468.5680847167969
2023-05-19T03:22:47.000Z,468.27862548828125
2023-05-19T03:23:49.000Z,466.6252746582031
2023-05-19T03:24:52.000Z,465.1182861328125
2023-05-19T03:25:54.000Z,466.38116455078125
2023-05-19T03:26:56.000Z,464.5767822265625
2023-05-19T03:27:58.000Z,462.96929931640625
2023-05-19T03:29:00.000Z,462.17462158203125
2023-05-19T03:30:02.000Z,462.529541015625
2023-05-19T03:31:04.000Z,461.5022888183594
2023-05-19T03:32:07.000Z,463.7129211425781
2023-05-19T03:33:09.000Z,463.0125427246094
2023-05-19T03:34:11.000Z,463.6047668457031
2023-05-19T03:35:13.000Z,465.060302734375
2023-05-19T03:36:15.000Z,466.6421203613281
2023-05-19T03:37:17.000Z,466.6031494140625
2023-05-19T03:38:19.000Z,465.8049621582031
2023-05-19T03:39:22.000Z,464.37908935546875
2023-05-19T03:40:24.000Z,464.7992248535156
2023-05-19T03:41:26.000Z,465.41717529296875
2023-05-19T03:42:28.000Z,466.6024169921875
2023-05-19T03:43:30.000Z,465.9188232421875
2023-05-19T03:44:32.000Z,463.98577880859375
2023-05-19T03:45:35.000Z,463.5328674316406
2023-05-19T03:46:37.000Z,463.74859619140625
2023-05-19T03:47:39.000Z,464.65570068359375
2023-05-19T03:48:41.000Z,460.52642822265625
2023-05-19T03:49:43.000Z,458.58038330078125
2023-05-19T03:50:45.000Z,456.8997497558594
2023-05-19T03:51:47.000Z,454.8195495605469
2023-05-19T03:52:50.000Z,456.7333984375
2023-05-19T03:53:52.000Z,458.6126403808594
2023-05-19T03:54:54.000Z,458.9283142089844
2023-05-19T03:55:56.000Z,460.6095886230469
2023-05-19T03:56:58.000Z,460.3992004394531
2023-05-19T03:58:00.000Z,460.4801940917969
2023-05-19T03:59:03.000Z,459.35791015625
2023-05-19T04:00:05.000Z,461.3169860839844
2023-05-19T04:01:07.000Z,464.4713134765625
2023-05-19T04:02:09.000Z,465.82733154296875
2023-05-19T04:03:11.000Z,464.0905456542969
2023-05-19T04:04:13.000Z,464.17919921875
2023-05-19T04:05:16.000Z,463.0661926269531
2023-05-19T04:06:18.000Z,462.7823791503906
2023-05-19T04:07:20.000Z,464.55419921875
2023-05-19T04:08:22.000Z,466.19598388671875
2023-05-19T04:09:24.000Z,463.8199768066406
2023-05-19T04:10:26.000Z,462.9112548828125
2023-05-19T04:11:28.000Z,463.1948547363281
2023-05-19T04:12:31.000Z,466.2395324707031
2023-05-19T04:13:33.000Z,467.95599365234375
2023-05-19T04:14:35.000Z,467.9552001953125
2023-05-19T04:15:37.000Z,467.11767578125
2023-05-19T04:16:39.000Z,467.4204406738281
2023-05-19T04:17:41.000Z,465.3123779296875
2023-05-19T04:18:44.000Z,465.33074951171875
2023-05-19T04:19:46.000Z,465.2911376953125
2023-05-19T04:20:48.000Z,465.09014892578125
2023-05-19T04:21:50.000Z,466.17083740234375
2023-05-19T04:22:52.000Z,465.08026123046875
2023-05-19T04:23:54.000Z,464.315673828125
2023-05-19T04:24:57.000Z,463.1219482421875
2023-05-19T04:25:59.000Z,462.6589050292969
2023-05-19T04:27:01.000Z,461.41876220703125
2023-05-19T04:28:03.000Z,462.25543212890625
2023-05-19T04:29:05.000Z,460.2995300292969
2023-05-19T04:30:07.000Z,456.5274658203125
2023-05-19T04:31:09.000Z,456.3207702636719
2023-05-19T04:32:12.000Z,455.90106201171875
2023-05-19T04:33:14.000Z,456.3710632324219
2023-05-19T04:34:16.000Z,454.9867858886719
2023-05-19T04:35:18.000Z,456.1324462890625
2023-05-19T04:36:20.000Z,456.831787109375
2023-05-19T04:37:22.000Z,460.0995178222656
2023-05-19T04:38:25.000Z,462.2596740722656
2023-05-19T04:39:27.000Z,461.27496337890625
2023-05-19T04:40:29.000Z,463.2528381347656
2023-05-19T04:41:31.000Z,463.40252685546875
2023-05-19T04:42:33.000Z,464.8424072265625
2023-05-19T04:43:35.000Z,465.357421875
2023-05-19T04:44:38.000Z,464.4067077636719
2023-05-19T04:45:40.000Z,464.1136779785156
2023-05-19T04:46:42.000Z,462.9471435546875
2023-05-19T04:47:44.000Z,462.30181884765625
2023-05-19T04:48:47.000Z,462.15277099609375
2023-05-19T04:49:49.000Z,464.3526916503906
2023-05-19T04:50:51.000Z,462.51141357421875
2023-05-19T04:51:53.000Z,462.6436462402344
2023-05-19T04:52:55.000Z,463.8070983886719
2023-05-19T04:53:57.000Z,462.8608093261719
2023-05-19T04:55:00.000Z,462.3335876464844
2023-05-19T04:56:02.000Z,461.7183837890625
2023-05-19T04:57:04.000Z,461.0819091796875
2023-05-19T04:58:06.000Z,458.3703918457031
2023-05-19T04:59:08.000Z,456.0233459472656
2023-05-19T05:00:10.000Z,458.0052490234375
2023-05-19T05:01:13.000Z,457.2482604980469
2023-05-19T05:02:15.000Z,457.9165344238281
2023-05-19T05:03:17.000Z,457.7191467285156
2023-05-19T05:04:19.000Z,459.6806945800781
2023-05-19T05:05:21.000Z,461.022705078125
2023-05-19T05:06:23.000Z,461.211669921875
2023-05-19T05:07:26.000Z,458.6855163574219
2023-05-19T05:08:28.000Z,454.66546630859375
2023-05-19T05:09:30.000Z,453.64019775390625
2023-05-19T05:10:32.000Z,453.9185485839844
2023-05-19T05:11:34.000Z,453.8125915527344
2023-05-19T05:12:36.000Z,453.90887451171875
2023-05-19T05:13:38.000Z,454.6538391113281
2023-05-19T05:14:41.000Z,454.5599060058594
2023-05-19T05:15:43.000Z,453.1034240722656
2023-05-19T05:16:45.000Z,454.3367004394531
2023-05-19T05:17:47.000Z,454.1544189453125
2023-05-19T05:18:49.000Z,453.32879638671875
2023-05-19T05:19:52.000Z,453.0669250488281
2023-05-19T05:20:54.000Z,455.7348327636719
2023-05-19T05:21:56.000Z,454.69024658203125
2023-05-19T05:22:58.000Z,452.51800537109375
2023-05-19T05:24:00.000Z,453.11358642578125
2023-05-19T05:25:07.000Z,452.02117919921875
2023-05-19T05:26:09.000Z,451.90869140625
2023-05-19T05:27:12.000Z,452.3744812011719
2023-05-19T05:28:14.000Z,451.7832946777344
2023-05-19T05:29:16.000Z,450.0116271972656
2023-05-19T05:30:18.000Z,452.0787353515625
2023-05-19T05:31:20.000Z,450.4895324707031
2023-05-19T05:32:22.000Z,452.06793212890625
2023-05-19T05:33:25.000Z,450.9803466796875
2023-05-19T05:34:27.000Z,449.39007568359375
2023-05-19T05:35:29.000Z,452.06488037109375
2023-05-19T05:36:31.000Z,451.3187561035156
2023-05-19T05:37:33.000Z,450.33673095703125
2023-05-19T05:38:35.000Z,448.669189453125
2023-05-19T05:39:37.000Z,449.77447509765625
2023-05-19T05:40:40.000Z,449.0954895019531
2023-05-19T05:41:42.000Z,449.7738037109375
2023-05-19T05:42:44.000Z,452.86376953125
2023-05-19T05:43:46.000Z,451.8763427734375
2023-05-19T05:44:48.000Z,450.06231689453125
2023-05-19T05:45:51.000Z,450.6059875488281
2023-05-19T05:46:53.000Z,448.1747131347656
2023-05-19T05:47:55.000Z,448.9048156738281
2023-05-19T05:48:57.000Z,448.437255859375
2023-05-19T05:49:59.000Z,448.2229309082031
2023-05-19T05:51:02.000Z,449.50848388671875
2023-05-19T05:52:04.000Z,447.92523193359375
2023-05-19T05:53:06.000Z,447.17926025390625
2023-05-19T05:54:08.000Z,446.19293212890625
2023-05-19T05:55:10.000Z,447.2696228027344
2023-05-19T05:56:12.000Z,447.8524475097656
2023-05-19T05:57:14.000Z,446.9235534667969
2023-05-19T05:58:17.000Z,444.9918518066406
2023-05-19T05:59:19.000Z,445.4259338378906
2023-05-19T06:00:21.000Z,447.6528015136719
2023-05-19T06:01:23.000Z,443.88714599609375
2023-05-19T06:02:25.000Z,442.8822021484375
2023-05-19T06:03:27.000Z,443.9540100097656
2023-05-19T06:04:30.000Z,443.3060302734375
2023-05-19T06:05:32.000Z,443.01593017578125
2023-05-19T06:06:34.000Z,442.3992614746094
2023-05-19T06:07:36.000Z,442.7137145996094
2023-05-19T06:08:38.000Z,441.8895263671875
2023-05-19T06:09:40.000Z,442.3922119140625
2023-05-19T06:10:42.000Z,442.22113037109375
2023-05-19T06:11:45.000Z,444.17059326171875
2023-05-19T06:12:47.000Z,441.61627197265625
2023-05-19T06:13:49.000Z,442.23345947265625
2023-05-19T06:14:51.000Z,442.705810546875
2023-05-19T06:15:53.000Z,442.7456970214844
2023-05-19T06:16:55.000Z,445.9912109375
2023-05-19T06:17:58.000Z,445.0284118652344
2023-05-19T06:19:00.000Z,444.6461486816406
2023-05-19T06:20:02.000Z,443.01824951171875
2023-05-19T06:21:04.000Z,442.640869140625
2023-05-19T06:22:06.000Z,442.8770446777344
2023-05-19T06:23:08.000Z,441.3648681640625
2023-05-19T06:24:10.000Z,438.8890380859375
2023-05-19T06:25:13.000Z,438.0074768066406
2023-05-19T06:26:15.000Z,434.7080078125
2023-05-19T06:27:17.000Z,432.2093811035156
2023-05-19T06:28:19.000Z,432.12274169921875
2023-05-19T06:29:21.000Z,429.4695739746094
2023-05-19T06:30:23.000Z,428.8105773925781
2023-05-19T06:31:25.000Z,427.36517333984375
2023-05-19T06:32:28.000Z,427.393798828125
2023-05-19T06:33:30.000Z,427.72845458984375
2023-05-19T06:34:32.000Z,429.5908508300781
2023-05-19T06:35:34.000Z,428.8730163574219
2023-05-19T06:36:36.000Z,428.8741760253906
2023-05-19T06:37:38.000Z,430.42547607421875
2023-05-19T06:38:40.000Z,435.2298278808594
2023-05-19T06:39:43.000Z,432.9621887207031
2023-05-19T06:40:45.000Z,433.6767883300781
2023-05-19T06:41:47.000Z,433.0928955078125
2023-05-19T06:42:49.000Z,432.46502685546875
2023-05-19T06:43:51.000Z,430.8253479003906
2023-05-19T06:44:54.000Z,429.9213562011719
2023-05-19T06:45:56.000Z,429.9810791015625
2023-05-19T06:46:58.000Z,430.960205078125
2023-05-19T06:48:00.000Z,430.8583679199219
2023-05-19T06:49:02.000Z,430.64202880859375
2023-05-19T06:50:04.000Z,430.7864990234375
2023-05-19T06:51:07.000Z,431.169189453125
2023-05-19T06:52:09.000Z,429.9473571777344
2023-05-19T06:53:11.000Z,430.45367431640625
2023-05-19T06:54:13.000Z,429.1206970214844
2023-05-19T06:55:15.000Z,431.5421142578125
2023-05-19T06:56:17.000Z,431.8464660644531
2023-05-19T06:57:20.000Z,435.1351318359375
2023-05-19T06:58:22.000Z,435.8341064453125
2023-05-19T06:59:24.000Z,435.7152404785156
2023-05-19T07:00:26.000Z,435.3056640625
2023-05-19T07:01:28.000Z,431.19403076171875
2023-05-19T07:02:30.000Z,433.60479736328125
2023-05-19T07:03:32.000Z,432.4681701660156
2023-05-19T07:04:35.000Z,432.8464050292969
2023-05-19T07:05:37.000Z,434.2869873046875
2023-05-19T07:06:39.000Z,434.17047119140625
2023-05-19T07:07:41.000Z,436.870361328125
2023-05-19T07:08:43.000Z,438.19915771484375
2023-05-19T07:09:45.000Z,437.02398681640625
2023-05-19T07:10:48.000Z,433.8908386230469
2023-05-19T07:11:50.000Z,432.7063903808594
2023-05-19T07:12:52.000Z,432.6665954589844
2023-05-19T07:13:54.000Z,430.3044128417969
2023-05-19T07:14:56.000Z,429.5316467285156
2023-05-19T07:15:59.000Z,427.5450134277344
2023-05-19T07:17:01.000Z,427.64544677734375
2023-05-19T07:18:03.000Z,427.7380676269531
2023-05-19T07:19:05.000Z,427.46502685546875
2023-05-19T07:20:07.000Z,428.93792724609375
2023-05-19T07:21:09.000Z,427.6793518066406
2023-05-19T07:22:11.000Z,431.6614990234375
2023-05-19T07:23:14.000Z,432.8850402832031
2023-05-19T07:24:16.000Z,434.3434143066406
2023-05-19T07:25:18.000Z,433.90338134765625
2023-05-19T07:26:20.000Z,435.6469421386719
2023-05-19T07:27:22.000Z,438.0373840332031
2023-05-19T07:28:24.000Z,436.4237365722656
2023-05-19T07:29:27.000Z,438.2047424316406
2023-05-19T07:30:29.000Z,438.9559020996094
2023-05-19T07:31:31.000Z,433.79522705078125
2023-05-19T07:32:33.000Z,435.9497985839844
2023-05-19T07:33:35.000Z,433.7896423339844
2023-05-19T07:34:37.000Z,432.66558837890625
2023-05-19T07:35:40.000Z,434.8411560058594
2023-05-19T07:36:42.000Z,437.6277160644531
2023-05-19T07:37:44.000Z,440.5442199707031
2023-05-19T07:38:46.000Z,437.53912353515625
2023-05-19T07:39:48.000Z,435.8795471191406
2023-05-19T07:40:50.000Z,435.5286865234375
2023-05-19T07:41:52.000Z,434.0140686035156
2023-05-19T07:42:55.000Z,434.92596435546875
2023-05-19T07:43:57.000Z,433.84979248046875
2023-05-19T07:44:59.000Z,434.8329772949219
2023-05-19T07:46:01.000Z,434.830810546875
2023-05-19T07:47:03.000Z,432.78515625
2023-05-19T07:48:05.000Z,431.012451171875
2023-05-19T07:49:08.000Z,430.2291564941406
2023-05-19T07:50:10.000Z,432.1627502441406
2023-05-19T07:51:12.000Z,431.8428039550781
2023-05-19T07:52:14.000Z,433.1172790527344
2023-05-19T07:53:16.000Z,431.92974853515625
2023-05-19T07:54:18.000Z,431.2358093261719
2023-05-19T07:55:20.000Z,432.4390563964844
2023-05-19T07:56:23.000Z,433.1114196777344
2023-05-19T07:57:25.000Z,432.3760986328125
2023-05-19T07:58:27.000Z,431.8601379394531
2023-05-19T07:59:29.000Z,430.24639892578125
2023-05-19T08:00:31.000Z,427.83441162109375
2023-05-19T08:01:33.000Z,429.5693359375
2023-05-19T08:02:36.000Z,428.30523681640625
2023-05-19T08:03:38.000Z,426.71990966796875
2023-05-19T08:04:40.000Z,426.3104248046875
2023-05-19T08:05:42.000Z,425.576904296875
2023-05-19T08:06:44.000Z,428.47149658203125
2023-05-19T08:07:46.000Z,428.7817687988281
2023-05-19T08:08:49.000Z,429.88262939453125
2023-05-19T08:09:51.000Z,431.89935302734375
2023-05-19T08:10:53.000Z,430.0955505371094
2023-05-19T08:11:55.000Z,427.53472900390625
2023-05-19T08:12:57.000Z,426.5374755859375
2023-05-19T08:13:59.000Z,427.35162353515625
2023-05-19T08:15:02.000Z,429.1544494628906
2023-05-19T08:16:04.000Z,429.19390869140625
2023-05-19T08:17:06.000Z,427.9019775390625
2023-05-19T08:18:08.000Z,427.43011474609375
2023-05-19T08:19:10.000Z,426.9223937988281
2023-05-19T08:20:12.000Z,427.0674133300781
2023-05-19T08:21:15.000Z,427.025146484375
2023-05-19T08:22:17.000Z,426.5798034667969
2023-05-19T08:23:19.000Z,426.3609619140625
2023-05-19T08:24:21.000Z,427.12713623046875
2023-05-19T08:25:23.000Z,427.9366149902344
2023-05-19T08:26:26.000Z,429.3296203613281
2023-05-19T08:27:28.000Z,430.08056640625
2023-05-19T08:28:30.000Z,429.02398681640625
2023-05-19T08:29:32.000Z,428.3362731933594
2023-05-19T08:30:34.000Z,428.16937255859375
2023-05-19T08:31:37.000Z,425.26324462890625
2023-05-19T08:32:39.000Z,423.0972900390625
2023-05-19T08:33:41.000Z,424.7924499511719
2023-05-19T08:34:43.000Z,427.6194763183594
2023-05-19T08:35:45.000Z,426.11187744140625
2023-05-19T08:36:47.000Z,425.2786560058594
2023-05-19T08:37:50.000Z,422.0440673828125
2023-05-19T08:38:52.000Z,421.2943115234375
2023-05-19T08:39:54.000Z,420.1725769042969
2023-05-19T08:40:56.000Z,418.6640625
2023-05-19T08:41:58.000Z,419.3378601074219
2023-05-19T08:43:00.000Z,418.0381774902344
2023-05-19T08:44:03.000Z,420.7697448730469
2023-05-19T08:45:05.000Z,419.5997619628906
2023-05-19T08:46:07.000Z,420.6226806640625
2023-05-19T08:47:09.000Z,421.5900573730469
2023-05-19T08:48:11.000Z,422.3390808105469
2023-05-19T08:49:13.000Z,423.701904296875
2023-05-19T08:50:16.000Z,426.08709716796875
2023-05-19T08:51:18.000Z,424.4398193359375
2023-05-19T08:52:20.000Z,425.5967712402344
2023-05-19T08:53:22.000Z,423.02215576171875
2023-05-19T08:54:24.000Z,423.43914794921875
2023-05-19T08:55:26.000Z,424.4259948730469
2023-05-19T08:56:29.000Z,423.22235107421875
2023-05-19T08:57:31.000Z,421.3781433105469
2023-05-19T08:58:33.000Z,419.5956115722656
2023-05-19T08:59:35.000Z,419.1672668457031
2023-05-19T09:00:37.000Z,419.0118713378906
2023-05-19T09:01:39.000Z,419.155517578125
2023-05-19T09:02:42.000Z,419.8575134277344
2023-05-19T09:03:44.000Z,417.8343505859375
2023-05-19T09:04:46.000Z,416.67779541015625
2023-05-19T09:05:48.000Z,416.13116455078125
2023-05-19T09:06:50.000Z,416.08514404296875
2023-05-19T09:07:52.000Z,416.5586853027344
2023-05-19T09:08:54.000Z,416.9737854003906
2023-05-19T09:09:57.000Z,417.8963623046875
2023-05-19T09:10:59.000Z,417.9163818359375
2023-05-19T09:12:01.000Z,418.1935119628906
2023-05-19T09:13:03.000Z,417.6361999511719
2023-05-19T09:14:05.000Z,417.1792907714844
2023-05-19T09:15:08.000Z,415.641357421875
2023-05-19T09:16:10.000Z,409.922607421875
2023-05-19T09:17:12.000Z,416.1914367675781
2023-05-19T09:18:14.000Z,419.1777648925781
2023-05-19T09:19:16.000Z,420.3376159667969
2023-05-19T09:20:18.000Z,421.0703430175781
2023-05-19T09:21:21.000Z,414.76739501953125
2023-05-19T09:22:23.000Z,412.87310791015625
2023-05-19T09:23:25.000Z,413.9540100097656
2023-05-19T09:24:27.000Z,417.91778564453125
2023-05-19T09:25:29.000Z,420.8795166015625
2023-05-19T09:26:31.000Z,420.753173828125
2023-05-19T09:27:33.000Z,424.62799072265625
2023-05-19T09:28:36.000Z,424.4129333496094
2023-05-19T09:29:38.000Z,423.9772033691406
2023-05-19T09:30:40.000Z,424.87591552734375
2023-05-19T09:31:42.000Z,425.5308532714844
2023-05-19T09:32:44.000Z,425.3812561035156
2023-05-19T09:33:46.000Z,424.5917663574219
2023-05-19T09:34:49.000Z,425.42132568359375
2023-05-19T09:35:51.000Z,426.1483459472656
2023-05-19T09:36:53.000Z,423.2677307128906